sensor_id;sensor_type;location;lat;lon;timestamp;pressure;altitude;pressure_sealevel;temperature;humidity
79085;BME280;68486;42.808;23.422;2023-08-21T00:01:05;30672.22;;;-145.14;100.00
79085;BME280;68486;42.808;23.422;2023-08-21T00:03:30;29148.25;;;-145.14;100.00
79085;BME280;68486;42.808;23.422;2023-08-21T00:05:56;32456.88;;;-145.14;100.00
79085;BME280;68486;42.808;23.422;2023-08-21T00:08:21;27624.91;;;-145.14;100.00
79085;BME280;68486;42.808;23.422;2023-08-21T00:10:47;24072.72;;;-145.14;100.00
79085;BME280;68486;42.808;23.422;2023-08-21T00:13:13;20523.75;;;-145.14;100.00
79085;BME280;68486;42.808;23.422;2023-08-21T00:15:39;20523.75;;;-145.14;100.00
79085;BME280;68486;42.808;23.422;2023-08-21T00:18:05;15712.44;;;-145.14;100.00
79085;BME280;68486;42.808;23.422;2023-08-21T00:20:30;10148.91;;;-145.14;100.00
79085;BME280;68486;42.808;23.422;2023-08-21T00:22:56;4088.72;;;-145.14;100.00
79085;BME280;68486;42.808;23.422;2023-08-21T00:25:22;4593.38;;;-145.14;100.00
79085;BME280;68486;42.808;23.422;2023-08-21T00:27:48;5350.47;;;-145.14;100.00
79085;BME280;68486;42.808;23.422;2023-08-21T00:30:13;9138.22;;;-145.14;100.00
79085;BME280;68486;42.808;23.422;2023-08-21T00:32:40;4593.38;;;-145.14;100.00
79085;BME280;68486;42.808;23.422;2023-08-21T00:35:06;557.97;;;-145.14;100.00
79085;BME280;68486;42.808;23.422;2023-08-21T00:37:32;9643.53;;;-145.14;100.00
79085;BME280;68486;42.808;23.422;2023-08-21T00:39:57;4845.72;;;-145.14;100.00
79085;BME280;68486;42.808;23.422;2023-08-21T00:42:22;5098.09;;;-145.14;100.00
79085;BME280;68486;42.808;23.422;2023-08-21T00:44:48;5350.47;;;-145.14;100.00
79085;BME280;68486;42.808;23.422;2023-08-21T00:47:13;5350.47;;;-145.14;100.00
79085;BME280;68486;42.808;23.422;2023-08-21T00:49:38;1818.59;;;-145.14;100.00
79085;BME280;68486;42.808;23.422;2023-08-21T00:52:07;2070.75;;;-145.14;100.00
79085;BME280;68486;42.808;23.422;2023-08-21T00:54:34;4845.72;;;-145.14;100.00
79085;BME280;68486;42.808;23.422;2023-08-21T00:57:00;5855.28;;;-145.14;100.00
79085;BME280;68486;42.808;23.422;2023-08-21T00:59:26;4593.38;;;-145.14;100.00
79085;BME280;68486;42.808;23.422;2023-08-21T01:01:51;3331.84;;;-145.14;100.00
79085;BME280;68486;42.808;23.422;2023-08-21T01:04:17;9138.22;;;-145.14;100.00
79085;BME280;68486;42.808;23.422;2023-08-21T01:06:42;10401.63;;;-145.14;100.00
79085;BME280;68486;42.808;23.422;2023-08-21T01:09:33;5602.88;;;-145.14;100.00
79085;BME280;68486;42.808;23.422;2023-08-21T01:12:09;4341.03;;;-145.14;100.00
79085;BME280;68486;42.808;23.422;2023-08-21T01:17:11;1818.59;;;-145.14;100.00
79085;BME280;68486;42.808;23.422;2023-08-21T01:19:42;-1206.16;;;-145.14;100.00
79085;BME280;68486;42.808;23.422;2023-08-21T01:22:08;-4480.31;;;-145.14;100.00
79085;BME280;68486;42.808;23.422;2023-08-21T01:24:33;-4228.56;;;-145.14;100.00
79085;BME280;68486;42.808;23.422;2023-08-21T01:26:59;-4732.06;;;-145.14;100.00
79085;BME280;68486;42.808;23.422;2023-08-21T01:29:25;-6745.41;;;-145.14;100.00
79085;BME280;68486;42.808;23.422;2023-08-21T01:34:55;-10517.56;;;-145.14;100.00
79085;BME280;68486;42.808;23.422;2023-08-21T01:37:21;-9763.44;;;-145.14;100.00
79085;BME280;68486;42.808;23.422;2023-08-21T01:39:47;-12779.09;;;-145.14;100.00
79085;BME280;68486;42.808;23.422;2023-08-21T01:42:12;-15039.28;;;-145.14;100.00
79085;BME280;68486;42.808;23.422;2023-08-21T01:44:38;-15541.38;;;-145.14;100.00
79085;BME280;68486;42.808;23.422;2023-08-21T01:47:03;-14788.22;;;-145.14;100.00
79085;BME280;68486;42.808;23.422;2023-08-21T01:49:29;-14286.03;;;-145.14;100.00
79085;BME280;68486;42.808;23.422;2023-08-21T01:51:54;-16043.38;;;-145.14;100.00
79085;BME280;68486;42.808;23.422;2023-08-21T01:54:20;-14537.13;;;-145.14;100.00
79085;BME280;68486;42.808;23.422;2023-08-21T01:56:45;-16796.28;;;-145.14;100.00
79085;BME280;68486;42.808;23.422;2023-08-21T01:59:11;-16796.28;;;-145.14;100.00
79085;BME280;68486;42.808;23.422;2023-08-21T02:01:36;-16294.38;;;-145.14;100.00
79085;BME280;68486;42.808;23.422;2023-08-21T02:04:01;-16796.28;;;-145.14;100.00
79085;BME280;68486;42.808;23.422;2023-08-21T02:06:27;-16043.38;;;-145.14;100.00
79085;BME280;68486;42.808;23.422;2023-08-21T02:08:52;-17549.03;;;-145.14;100.00
79085;BME280;68486;42.808;23.422;2023-08-21T02:11:18;-15290.31;;;-145.14;100.00
79085;BME280;68486;42.808;23.422;2023-08-21T02:13:43;-14537.13;;;-145.14;100.00
79085;BME280;68486;42.808;23.422;2023-08-21T02:16:08;-16545.31;;;-145.14;100.00
79085;BME280;68486;42.808;23.422;2023-08-21T02:18:34;-12276.66;;;-145.14;100.00
79085;BME280;68486;42.808;23.422;2023-08-21T02:21:02;-13281.47;;;-145.14;100.00
79085;BME280;68486;42.808;23.422;2023-08-21T02:23:28;-14286.03;;;-145.14;100.00
79085;BME280;68486;42.808;23.422;2023-08-21T02:25:54;-14286.03;;;-145.14;100.00
79085;BME280;68486;42.808;23.422;2023-08-21T02:28:20;-16545.31;;;-145.14;100.00
79085;BME280;68486;42.808;23.422;2023-08-21T02:30:45;-18050.78;;;-145.14;100.00
79085;BME280;68486;42.808;23.422;2023-08-21T02:33:11;-18552.47;;;-145.14;100.00
79085;BME280;68486;42.808;23.422;2023-08-21T02:35:36;-18050.78;;;-145.14;100.00
79085;BME280;68486;42.808;23.422;2023-08-21T02:38:02;-18301.63;;;-145.14;100.00
79085;BME280;68486;42.808;23.422;2023-08-21T02:40:27;-18552.47;;;-145.14;100.00
79085;BME280;68486;42.808;23.422;2023-08-21T02:42:53;-18552.47;;;-145.14;100.00
79085;BME280;68486;42.808;23.422;2023-08-21T02:45:18;-18552.47;;;-145.14;100.00
79085;BME280;68486;42.808;23.422;2023-08-21T02:47:44;-19055.56;;;-145.14;100.00
79085;BME280;68486;42.808;23.422;2023-08-21T02:50:10;-19054.09;;;-145.14;100.00
79085;BME280;68486;42.808;23.422;2023-08-21T02:52:36;-19054.09;;;-145.14;100.00
79085;BME280;68486;42.808;23.422;2023-08-21T02:55:03;-19055.56;;;-145.14;100.00
79085;BME280;68486;42.808;23.422;2023-08-21T02:57:28;-19054.09;;;-145.14;100.00
79085;BME280;68486;42.808;23.422;2023-08-21T02:59:55;-18803.28;;;-145.14;100.00
79085;BME280;68486;42.808;23.422;2023-08-21T03:02:20;-19055.56;;;-145.14;100.00
79085;BME280;68486;42.808;23.422;2023-08-21T03:04:46;-19055.56;;;-145.14;100.00
79085;BME280;68486;42.808;23.422;2023-08-21T03:07:11;-19055.56;;;-145.14;100.00
79085;BME280;68486;42.808;23.422;2023-08-21T03:09:38;-19055.56;;;-145.14;100.00
79085;BME280;68486;42.808;23.422;2023-08-21T03:12:04;-19055.56;;;-145.14;100.00
79085;BME280;68486;42.808;23.422;2023-08-21T03:14:29;-19055.56;;;-145.14;100.00
79085;BME280;68486;42.808;23.422;2023-08-21T03:16:55;-19055.56;;;-145.14;100.00
79085;BME280;68486;42.808;23.422;2023-08-21T03:19:20;-19055.56;;;-145.14;100.00
79085;BME280;68486;42.808;23.422;2023-08-21T03:21:46;-19055.56;;;-145.14;100.00
79085;BME280;68486;42.808;23.422;2023-08-21T03:24:11;-19055.56;;;-145.14;100.00
79085;BME280;68486;42.808;23.422;2023-08-21T03:26:36;-19055.56;;;-145.14;100.00
79085;BME280;68486;42.808;23.422;2023-08-21T03:29:02;-19055.56;;;-145.14;100.00
79085;BME280;68486;42.808;23.422;2023-08-21T03:31:29;-19055.56;;;-145.14;100.00
79085;BME280;68486;42.808;23.422;2023-08-21T03:33:55;-19055.56;;;-145.14;100.00
79085;BME280;68486;42.808;23.422;2023-08-21T03:36:20;-19055.56;;;-145.14;100.00
79085;BME280;68486;42.808;23.422;2023-08-21T03:38:46;-19055.56;;;-145.14;100.00
79085;BME280;68486;42.808;23.422;2023-08-21T03:41:11;-19055.56;;;-145.14;100.00
79085;BME280;68486;42.808;23.422;2023-08-21T03:43:37;-19055.56;;;-145.14;100.00
79085;BME280;68486;42.808;23.422;2023-08-21T03:46:03;-19055.56;;;-145.14;100.00
79085;BME280;68486;42.808;23.422;2023-08-21T03:48:28;-19054.09;;;-145.14;100.00
79085;BME280;68486;42.808;23.422;2023-08-21T03:50:54;-18803.28;;;-145.14;100.00
79085;BME280;68486;42.808;23.422;2023-08-21T03:53:19;-19054.09;;;-145.14;100.00
79085;BME280;68486;42.808;23.422;2023-08-21T03:55:45;-18803.28;;;-145.14;100.00
79085;BME280;68486;42.808;23.422;2023-08-21T03:58:10;-19055.56;;;-145.14;100.00
79085;BME280;68486;42.808;23.422;2023-08-21T04:00:35;-19055.56;;;-145.14;100.00
79085;BME280;68486;42.808;23.422;2023-08-21T04:03:02;-19055.56;;;-145.14;100.00
79085;BME280;68486;42.808;23.422;2023-08-21T04:05:27;-19055.56;;;-145.14;100.00
79085;BME280;68486;42.808;23.422;2023-08-21T04:07:53;-19055.56;;;-145.14;100.00
79085;BME280;68486;42.808;23.422;2023-08-21T04:10:18;-19055.56;;;-145.14;100.00
79085;BME280;68486;42.808;23.422;2023-08-21T04:12:44;-19055.56;;;-145.14;100.00
79085;BME280;68486;42.808;23.422;2023-08-21T04:15:10;-19055.56;;;-145.14;100.00
79085;BME280;68486;42.808;23.422;2023-08-21T04:17:35;-19055.56;;;-145.14;100.00
79085;BME280;68486;42.808;23.422;2023-08-21T04:20:01;-19055.56;;;-145.14;100.00
79085;BME280;68486;42.808;23.422;2023-08-21T04:22:26;-19055.56;;;-145.14;100.00
79085;BME280;68486;42.808;23.422;2023-08-21T04:24:52;-19055.56;;;-145.14;100.00
79085;BME280;68486;42.808;23.422;2023-08-21T04:27:17;-19055.56;;;-145.14;100.00
79085;BME280;68486;42.808;23.422;2023-08-21T04:29:42;-19055.56;;;-145.14;100.00
79085;BME280;68486;42.808;23.422;2023-08-21T04:32:08;-19055.56;;;-145.14;100.00
79085;BME280;68486;42.808;23.422;2023-08-21T04:34:33;-19055.56;;;-145.14;100.00
79085;BME280;68486;42.808;23.422;2023-08-21T04:36:59;-19055.56;;;-145.14;100.00
79085;BME280;68486;42.808;23.422;2023-08-21T04:39:25;-19055.56;;;-145.14;100.00
79085;BME280;68486;42.808;23.422;2023-08-21T04:41:50;-19055.56;;;-145.14;100.00
79085;BME280;68486;42.808;23.422;2023-08-21T04:44:16;-19055.56;;;-145.14;100.00
79085;BME280;68486;42.808;23.422;2023-08-21T04:46:42;-19055.56;;;-145.14;100.00
79085;BME280;68486;42.808;23.422;2023-08-21T04:49:07;-19055.56;;;-145.14;100.00
79085;BME280;68486;42.808;23.422;2023-08-21T04:51:33;-19055.56;;;-145.14;100.00
79085;BME280;68486;42.808;23.422;2023-08-21T04:53:59;-19055.56;;;-145.14;100.00
79085;BME280;68486;42.808;23.422;2023-08-21T04:56:25;-19055.56;;;-145.14;100.00
79085;BME280;68486;42.808;23.422;2023-08-21T04:58:51;-19055.56;;;-145.14;100.00
79085;BME280;68486;42.808;23.422;2023-08-21T05:01:17;-19055.56;;;-145.14;100.00
79085;BME280;68486;42.808;23.422;2023-08-21T05:03:42;-19055.56;;;-145.14;100.00
79085;BME280;68486;42.808;23.422;2023-08-21T05:06:08;-19055.56;;;-145.14;100.00
79085;BME280;68486;42.808;23.422;2023-08-21T05:08:33;-19054.09;;;-145.14;100.00
79085;BME280;68486;42.808;23.422;2023-08-21T05:11:00;-19054.09;;;-145.14;100.00
79085;BME280;68486;42.808;23.422;2023-08-21T05:13:26;-18803.28;;;-145.14;100.00
79085;BME280;68486;42.808;23.422;2023-08-21T05:15:56;-16043.38;;;-145.14;100.00
79085;BME280;68486;42.808;23.422;2023-08-21T05:18:23;-14537.13;;;-145.14;100.00
79085;BME280;68486;42.808;23.422;2023-08-21T05:20:49;-12276.66;;;-145.14;100.00
79085;BME280;68486;42.808;23.422;2023-08-21T05:23:15;-13281.47;;;-145.14;100.00
79085;BME280;68486;42.808;23.422;2023-08-21T05:25:42;-11020.25;;;-145.14;100.00
79085;BME280;68486;42.808;23.422;2023-08-21T05:28:08;-9512.03;;;-145.14;100.00
79085;BME280;68486;42.808;23.422;2023-08-21T05:30:35;-9260.59;;;-145.14;100.00
79085;BME280;68486;42.808;23.422;2023-08-21T05:33:01;-9260.59;;;-145.14;100.00
79085;BME280;68486;42.808;23.422;2023-08-21T05:35:26;-6997.00;;;-145.14;100.00
79085;BME280;68486;42.808;23.422;2023-08-21T05:37:51;-11522.84;;;-145.14;100.00
79085;BME280;68486;42.808;23.422;2023-08-21T05:40:17;-11774.13;;;-145.14;100.00
79085;BME280;68486;42.808;23.422;2023-08-21T05:42:42;-9260.59;;;-145.14;100.00
79085;BME280;68486;42.808;23.422;2023-08-21T05:45:08;-8757.69;;;-145.14;100.00
79085;BME280;68486;42.808;23.422;2023-08-21T05:47:33;-8757.69;;;-145.14;100.00
79085;BME280;68486;42.808;23.422;2023-08-21T05:49:59;-11774.13;;;-145.14;100.00
79085;BME280;68486;42.808;23.422;2023-08-21T05:52:24;-10768.91;;;-145.14;100.00
79085;BME280;68486;42.808;23.422;2023-08-21T05:54:50;-9763.44;;;-145.14;100.00
79085;BME280;68486;42.808;23.422;2023-08-21T05:57:15;-9260.59;;;-145.14;100.00
79085;BME280;68486;42.808;23.422;2023-08-21T05:59:45;-8003.19;;;-145.14;100.00
79085;BME280;68486;42.808;23.422;2023-08-21T06:02:11;-6493.78;;;-145.14;100.00
79085;BME280;68486;42.808;23.422;2023-08-21T06:04:39;-3976.78;;;-145.14;100.00
79085;BME280;68486;42.808;23.422;2023-08-21T06:07:05;-4228.56;;;-145.14;100.00
79085;BME280;68486;42.808;23.422;2023-08-21T06:09:30;1314.31;;;-145.14;100.00
79085;BME280;68486;42.808;23.422;2023-08-21T06:11:59;1314.31;;;-145.14;100.00
79085;BME280;68486;42.808;23.422;2023-08-21T06:14:25;-954.19;;;-145.14;100.00
79085;BME280;68486;42.808;23.422;2023-08-21T06:16:58;-3473.19;;;-145.14;100.00
79085;BME280;68486;42.808;23.422;2023-08-21T06:19:24;810.06;;;-145.14;100.00
79085;BME280;68486;42.808;23.422;2023-08-21T06:21:49;-198.19;;;-145.14;100.00
79085;BME280;68486;42.808;23.422;2023-08-21T06:24:15;53.84;;;-145.14;100.00
79085;BME280;68486;42.808;23.422;2023-08-21T06:26:40;-954.19;;;-145.14;100.00
79085;BME280;68486;42.808;23.422;2023-08-21T06:29:05;-450.22;;;-145.14;100.00
79085;BME280;68486;42.808;23.422;2023-08-21T06:31:31;-1962.00;;;-145.14;100.00
79085;BME280;68486;42.808;23.422;2023-08-21T06:33:56;-954.19;;;-145.14;100.00
79085;BME280;68486;42.808;23.422;2023-08-21T06:36:22;557.97;;;-145.14;100.00
79085;BME280;68486;42.808;23.422;2023-08-21T06:38:47;1314.31;;;-145.14;100.00
79085;BME280;68486;42.808;23.422;2023-08-21T06:41:13;53.84;;;-145.14;100.00
79085;BME280;68486;42.808;23.422;2023-08-21T06:43:38;557.97;;;-145.14;100.00
79085;BME280;68486;42.808;23.422;2023-08-21T06:46:04;3079.59;;;-145.14;100.00
79085;BME280;68486;42.808;23.422;2023-08-21T06:48:29;3584.13;;;-145.14;100.00
79085;BME280;68486;42.808;23.422;2023-08-21T06:50:55;3836.41;;;-145.14;100.00
79085;BME280;68486;42.808;23.422;2023-08-21T06:53:20;3079.59;;;-145.14;100.00
79085;BME280;68486;42.808;23.422;2023-08-21T06:55:46;2322.94;;;-145.14;100.00
79085;BME280;68486;42.808;23.422;2023-08-21T06:58:11;9390.88;;;-145.14;100.00
79085;BME280;68486;42.808;23.422;2023-08-21T07:00:37;9643.53;;;-145.14;100.00
79085;BME280;68486;42.808;23.422;2023-08-21T07:03:03;12171.09;;;-145.14;100.00
79085;BME280;68486;42.808;23.422;2023-08-21T07:05:28;13435.50;;;-145.14;100.00
79085;BME280;68486;42.808;23.422;2023-08-21T07:07:54;5602.88;;;-145.14;100.00
79085;BME280;68486;42.808;23.422;2023-08-21T07:10:20;17484.34;;;-145.14;100.00
79085;BME280;68486;42.808;23.422;2023-08-21T07:12:46;18750.47;;;-145.14;100.00
79085;BME280;68486;42.808;23.422;2023-08-21T07:15:11;21790.84;;;-145.14;100.00
79085;BME280;68486;42.808;23.422;2023-08-21T07:17:37;15965.53;;;-145.14;100.00
79085;BME280;68486;42.808;23.422;2023-08-21T07:20:03;18243.97;;;-145.14;100.00
79085;BME280;68486;42.808;23.422;2023-08-21T07:22:29;23819.09;;;-145.14;100.00
79085;BME280;68486;42.808;23.422;2023-08-21T07:24:55;21790.84;;;-145.14;100.00
79085;BME280;68486;42.808;23.422;2023-08-21T07:27:20;18497.22;;;-145.14;100.00
79085;BME280;68486;42.808;23.422;2023-08-21T07:29:46;25594.69;;;-145.14;100.00
79085;BME280;68486;42.808;23.422;2023-08-21T07:32:12;34786.69;;;-145.14;100.00
79085;BME280;68486;42.808;23.422;2023-08-21T07:34:37;34949.59;;;-145.14;100.00
79085;BME280;68486;42.808;23.422;2023-08-21T07:37:03;38619.06;;;-145.14;100.00
79085;BME280;68486;42.808;23.422;2023-08-21T07:39:28;40699.84;;;-145.14;100.00
79085;BME280;68486;42.808;23.422;2023-08-21T07:41:54;45077.78;;;-145.14;100.00
79085;BME280;68486;42.808;23.422;2023-08-21T07:44:19;43725.47;;;-145.14;100.00
79085;BME280;68486;42.808;23.422;2023-08-21T07:46:44;45155.47;;;-145.14;100.00
79085;BME280;68486;42.808;23.422;2023-08-21T07:49:10;46257.22;;;-145.14;100.00
79085;BME280;68486;42.808;23.422;2023-08-21T07:51:35;45892.59;;;-145.14;100.00
79085;BME280;68486;42.808;23.422;2023-08-21T07:54:01;47211.78;;;-145.14;100.00
79085;BME280;68486;42.808;23.422;2023-08-21T07:56:27;48680.97;;;-145.14;100.00
79085;BME280;68486;42.808;23.422;2023-08-21T07:58:52;48507.50;;;-145.14;100.00
79085;BME280;68486;42.808;23.422;2023-08-21T08:01:17;49251.22;;;-145.14;100.00
79085;BME280;68486;42.808;23.422;2023-08-21T08:03:45;48603.19;;;-145.14;100.00
79085;BME280;68486;42.808;23.422;2023-08-21T08:06:10;49428.72;;;-145.14;100.00
79085;BME280;68486;42.808;23.422;2023-08-21T08:08:36;49225.31;;;-145.14;100.00
79085;BME280;68486;42.808;23.422;2023-08-21T08:11:02;49654.06;;;-145.14;100.00
79085;BME280;68486;42.808;23.422;2023-08-21T08:13:28;50106.78;;;-145.14;100.00
79085;BME280;68486;42.808;23.422;2023-08-21T08:15:53;50126.72;;;-145.14;100.00
79085;BME280;68486;42.808;23.422;2023-08-21T08:18:19;50431.91;;;-145.14;100.00
79085;BME280;68486;42.808;23.422;2023-08-21T08:20:44;50451.84;;;-145.14;100.00
79085;BME280;68486;42.808;23.422;2023-08-21T08:23:10;50605.44;;;-145.14;100.00
79085;BME280;68486;42.808;23.422;2023-08-21T08:25:35;50685.25;;;-145.14;100.00
79085;BME280;68486;42.808;23.422;2023-08-21T08:28:01;50944.56;;;-145.14;100.00
79085;BME280;68486;42.808;23.422;2023-08-21T08:30:26;50886.72;;;-145.14;100.00
79085;BME280;68486;42.808;23.422;2023-08-21T08:32:51;50866.78;;;-145.14;100.00
79085;BME280;68486;42.808;23.422;2023-08-21T08:35:17;51012.41;;;-145.14;100.00
79085;BME280;68486;42.808;23.422;2023-08-21T08:37:42;51193.97;;;-145.14;100.00
79085;BME280;68486;42.808;23.422;2023-08-21T08:40:09;51112.16;;;-145.14;100.00
79085;BME280;68486;42.808;23.422;2023-08-21T08:42:35;51247.81;;;-145.14;100.00
79085;BME280;68486;42.808;23.422;2023-08-21T08:45:02;51178.00;;;-145.14;100.00
79085;BME280;68486;42.808;23.422;2023-08-21T08:47:31;51229.88;;;-145.14;100.00
79085;BME280;68486;42.808;23.422;2023-08-21T08:49:57;51397.47;;;-145.14;100.00
79085;BME280;68486;42.808;23.422;2023-08-21T08:52:26;51469.28;;;-145.14;100.00
79085;BME280;68486;42.808;23.422;2023-08-21T08:54:54;51457.31;;;-145.14;100.00
79085;BME280;68486;42.808;23.422;2023-08-21T08:57:20;51519.16;;;-145.14;100.00
79085;BME280;68486;42.808;23.422;2023-08-21T08:59:46;51491.22;;;-145.14;100.00
79085;BME280;68486;42.808;23.422;2023-08-21T09:02:11;51718.69;;;-145.14;100.00
79085;BME280;68486;42.808;23.422;2023-08-21T09:04:37;51714.72;;;-145.14;100.00
79085;BME280;68486;42.808;23.422;2023-08-21T09:07:09;51646.88;;;-145.14;100.00
79085;BME280;68486;42.808;23.422;2023-08-21T09:09:45;51415.41;;;-145.14;100.00
79085;BME280;68486;42.808;23.422;2023-08-21T09:12:12;51602.97;;;-145.14;100.00
79085;BME280;68486;42.808;23.422;2023-08-21T09:14:39;51347.59;;;-145.14;100.00
79085;BME280;68486;42.808;23.422;2023-08-21T09:17:05;51728.66;;;-145.14;100.00
79085;BME280;68486;42.808;23.422;2023-08-21T09:19:31;51365.53;;;-145.14;100.00
79085;BME280;68486;42.808;23.422;2023-08-21T09:21:57;51387.47;;;-145.14;100.00
79085;BME280;68486;42.808;23.422;2023-08-21T09:24:23;51716.69;;;-145.14;100.00
79085;BME280;68486;42.808;23.422;2023-08-21T09:26:49;51461.31;;;-145.14;100.00
79085;BME280;68486;42.808;23.422;2023-08-21T09:29:14;50898.69;;;-145.14;100.00
79085;BME280;68486;42.808;23.422;2023-08-21T09:31:40;50282.31;;;-145.14;100.00
79085;BME280;68486;42.808;23.422;2023-08-21T09:34:06;50403.97;;;-145.14;100.00
79085;BME280;68486;42.808;23.422;2023-08-21T09:36:34;50094.81;;;-145.14;100.00
79085;BME280;68486;42.808;23.422;2023-08-21T09:39:01;50042.97;;;-145.14;100.00
79085;BME280;68486;42.808;23.422;2023-08-21T09:41:27;49791.66;;;-145.14;100.00
79085;BME280;68486;42.808;23.422;2023-08-21T09:43:53;49620.16;;;-145.14;100.00
79085;BME280;68486;42.808;23.422;2023-08-21T09:46:24;49691.94;;;-145.14;100.00
79085;BME280;68486;42.808;23.422;2023-08-21T09:48:51;49472.56;;;-145.14;100.00
79085;BME280;68486;42.808;23.422;2023-08-21T09:51:17;49478.56;;;-145.14;100.00
79085;BME280;68486;42.808;23.422;2023-08-21T09:53:44;49556.34;;;-145.14;100.00
79085;BME280;68486;42.808;23.422;2023-08-21T09:56:10;49532.41;;;-145.14;100.00
79085;BME280;68486;42.808;23.422;2023-08-21T09:58:36;49681.97;;;-145.14;100.00
79085;BME280;68486;42.808;23.422;2023-08-21T10:01:05;49436.69;;;-145.14;100.00
79085;BME280;68486;42.808;23.422;2023-08-21T10:03:39;49468.59;;;-145.14;100.00
79085;BME280;68486;42.808;23.422;2023-08-21T10:06:06;49332.97;;;-145.14;100.00
79085;BME280;68486;42.808;23.422;2023-08-21T10:08:36;49257.22;;;-145.14;100.00
79085;BME280;68486;42.808;23.422;2023-08-21T10:11:04;49249.22;;;-145.14;100.00
79085;BME280;68486;42.808;23.422;2023-08-21T10:13:32;49340.97;;;-145.14;100.00
79085;BME280;68486;42.808;23.422;2023-08-21T10:15:58;49093.69;;;-145.14;100.00
79085;BME280;68486;42.808;23.422;2023-08-21T10:18:37;49137.56;;;-145.14;100.00
79085;BME280;68486;42.808;23.422;2023-08-21T10:21:13;49065.78;;;-145.14;100.00
79085;BME280;68486;42.808;23.422;2023-08-21T10:23:39;49133.56;;;-145.14;100.00
79085;BME280;68486;42.808;23.422;2023-08-21T10:26:06;49021.91;;;-145.14;100.00
79085;BME280;68486;42.808;23.422;2023-08-21T10:33:57;49053.81;;;-145.14;100.00
79085;BME280;68486;42.808;23.422;2023-08-21T10:41:53;49161.50;;;-145.14;100.00
79085;BME280;68486;42.808;23.422;2023-08-21T10:49:49;48997.97;;;-145.14;100.00
79085;BME280;68486;42.808;23.422;2023-08-21T10:52:21;49087.72;;;-145.14;100.00
79085;BME280;68486;42.808;23.422;2023-08-21T10:54:50;48997.97;;;-145.14;100.00
79085;BME280;68486;42.808;23.422;2023-08-21T10:57:16;48978.03;;;-145.14;100.00
79085;BME280;68486;42.808;23.422;2023-08-21T10:59:59;48952.13;;;-145.14;100.00
79085;BME280;68486;42.808;23.422;2023-08-21T11:02:27;48956.09;;;-145.14;100.00
79085;BME280;68486;42.808;23.422;2023-08-21T11:04:57;48992.00;;;-145.14;100.00
79085;BME280;68486;42.808;23.422;2023-08-21T11:07:23;48962.09;;;-145.14;100.00
79085;BME280;68486;42.808;23.422;2023-08-21T11:09:49;48966.09;;;-145.14;100.00
79085;BME280;68486;42.808;23.422;2023-08-21T11:12:16;48934.19;;;-145.14;100.00
79085;BME280;68486;42.808;23.422;2023-08-21T11:14:42;48912.25;;;-145.14;100.00
79085;BME280;68486;42.808;23.422;2023-08-21T11:17:09;48956.09;;;-145.14;100.00
79085;BME280;68486;42.808;23.422;2023-08-21T11:19:35;48948.13;;;-145.14;100.00
79085;BME280;68486;42.808;23.422;2023-08-21T11:22:01;49051.81;;;-145.14;100.00
79085;BME280;68486;42.808;23.422;2023-08-21T11:27:06;48970.06;;;-145.14;100.00
79085;BME280;68486;42.808;23.422;2023-08-21T11:29:57;49017.94;;;-145.14;100.00
79085;BME280;68486;42.808;23.422;2023-08-21T11:32:23;49017.94;;;-145.14;100.00
79085;BME280;68486;42.808;23.422;2023-08-21T11:34:53;48976.06;;;-145.14;100.00
79085;BME280;68486;42.808;23.422;2023-08-21T11:37:21;49281.13;;;-145.14;100.00
79085;BME280;68486;42.808;23.422;2023-08-21T11:39:57;48942.16;;;-145.14;100.00
79085;BME280;68486;42.808;23.422;2023-08-21T11:42:30;48984.03;;;-145.14;100.00
79085;BME280;68486;42.808;23.422;2023-08-21T11:44:56;48970.06;;;-145.14;100.00
79085;BME280;68486;42.808;23.422;2023-08-21T11:47:23;48946.13;;;-145.14;100.00
79085;BME280;68486;42.808;23.422;2023-08-21T11:49:50;48930.19;;;-145.14;100.00
79085;BME280;68486;42.808;23.422;2023-08-21T11:52:20;48936.16;;;-145.14;100.00
79085;BME280;68486;42.808;23.422;2023-08-21T11:54:50;48946.13;;;-145.14;100.00
79085;BME280;68486;42.808;23.422;2023-08-21T11:57:17;48976.06;;;-145.14;100.00
79085;BME280;68486;42.808;23.422;2023-08-21T11:59:43;48974.06;;;-145.14;100.00
79085;BME280;68486;42.808;23.422;2023-08-21T12:02:19;48930.19;;;-145.14;100.00
79085;BME280;68486;42.808;23.422;2023-08-21T12:04:44;48942.16;;;-145.14;100.00
79085;BME280;68486;42.808;23.422;2023-08-21T12:07:10;48930.19;;;-145.14;100.00
79085;BME280;68486;42.808;23.422;2023-08-21T12:09:37;48930.19;;;-145.14;100.00
79085;BME280;68486;42.808;23.422;2023-08-21T12:12:02;48982.03;;;-145.14;100.00
79085;BME280;68486;42.808;23.422;2023-08-21T12:14:28;48936.16;;;-145.14;100.00
79085;BME280;68486;42.808;23.422;2023-08-21T12:16:55;48918.22;;;-145.14;100.00
79085;BME280;68486;42.808;23.422;2023-08-21T12:19:23;49073.75;;;-145.14;100.00
79085;BME280;68486;42.808;23.422;2023-08-21T12:21:50;49077.75;;;-145.14;100.00
79085;BME280;68486;42.808;23.422;2023-08-21T12:24:16;48856.41;;;-145.14;100.00
79085;BME280;68486;42.808;23.422;2023-08-21T12:26:41;48906.25;;;-145.14;100.00
79085;BME280;68486;42.808;23.422;2023-08-21T12:29:07;48876.34;;;-145.14;100.00
79085;BME280;68486;42.808;23.422;2023-08-21T12:31:32;48900.28;;;-145.14;100.00
79085;BME280;68486;42.808;23.422;2023-08-21T12:33:58;48858.41;;;-145.14;100.00
79085;BME280;68486;42.808;23.422;2023-08-21T12:36:24;48898.28;;;-145.14;100.00
79085;BME280;68486;42.808;23.422;2023-08-21T12:38:50;48908.25;;;-145.14;100.00